createdAt,value
2018-02-07T00:01:00.609Z,-1.96
2018-02-07T00:02:10.296Z,-1.93
2018-02-07T00:03:20.251Z,-1.89
2018-02-07T00:04:29.939Z,-1.94
2018-02-07T00:05:39.624Z,-1.94
2018-02-07T00:06:49.569Z,-1.92
2018-02-07T00:07:59.512Z,-1.96
2018-02-07T00:09:09.202Z,-1.92
2018-02-07T00:10:18.889Z,-1.96
2018-02-07T00:11:28.835Z,-1.94
2018-02-07T00:12:38.260Z,-1.93
2018-02-07T00:13:47.954Z,-1.92
2018-02-07T00:14:57.643Z,-1.87
2018-02-07T00:16:07.089Z,-1.86
2018-02-07T00:17:16.517Z,-1.9
2018-02-07T00:18:26.464Z,-1.9
2018-02-07T00:19:36.414Z,-1.92
2018-02-07T00:20:46.352Z,-1.94
2018-02-07T00:21:56.040Z,-1.94
2018-02-07T00:23:05.993Z,-1.94
2018-02-07T00:24:15.688Z,-1.99
2018-02-07T00:25:25.383Z,-2
2018-02-07T00:26:35.333Z,-1.92
2018-02-07T00:27:45.283Z,-1.96
2018-02-07T00:28:54.962Z,-1.99
2018-02-07T00:30:04.396Z,-2.08
2018-02-07T00:31:14.353Z,-2.08
2018-02-07T00:32:24.294Z,-2.02
2018-02-07T00:33:34.248Z,-1.93
2018-02-07T00:34:44.200Z,-1.94
2018-02-07T00:35:54.152Z,-2.08
2018-02-07T00:37:04.101Z,-1.97
2018-02-07T00:38:14.041Z,-2.1
2018-02-07T00:39:23.981Z,-2.13
2018-02-07T00:40:34.165Z,-2.11
2018-02-07T00:41:44.142Z,-2.1
2018-02-07T00:42:54.094Z,-2.13
2018-02-07T00:44:04.032Z,-2.1
2018-02-07T00:45:13.712Z,-2.1
2018-02-07T00:46:23.695Z,-2.13
2018-02-07T00:47:33.664Z,-2.18
2018-02-07T00:48:43.617Z,-2.2
2018-02-07T00:49:53.568Z,-2.13
2018-02-07T00:51:03.519Z,-2.14
2018-02-07T00:52:13.484Z,-2.17
2018-02-07T00:53:22.910Z,-2.08
2018-02-07T00:54:32.620Z,-2.18
2018-02-07T00:55:42.558Z,-2.14
2018-02-07T00:56:52.247Z,-2.14
2018-02-07T00:58:02.201Z,-2.17
2018-02-07T00:59:11.896Z,-2.11
2018-02-07T01:00:21.865Z,-2.11
2018-02-07T01:01:31.811Z,-2.15
2018-02-07T01:02:41.742Z,-2.17
2018-02-07T01:03:51.695Z,-2.17
2018-02-07T01:05:01.642Z,-2.25
2018-02-07T01:06:11.334Z,-2.25
2018-02-07T01:07:21.288Z,-2.2
2018-02-07T01:08:30.714Z,-2.23
2018-02-07T01:09:40.405Z,-2.18
2018-02-07T01:10:50.098Z,-2.17
2018-02-07T01:12:00.043Z,-2.11
2018-02-07T01:13:09.753Z,-2.13
2018-02-07T01:14:19.704Z,-2.13
2018-02-07T01:15:29.692Z,-2.18
2018-02-07T01:16:39.379Z,-2.23
2018-02-07T01:17:49.319Z,-2.2
2018-02-07T01:18:59.257Z,-2.15
2018-02-07T01:20:09.198Z,-2.1
2018-02-07T01:21:18.893Z,-2.25
2018-02-07T01:22:28.844Z,-2.1
2018-02-07T01:23:38.787Z,-2.17
2018-02-07T01:24:48.728Z,-2.25
2018-02-07T01:25:58.675Z,-2.34
2018-02-07T01:27:08.629Z,-2.29
2018-02-07T01:28:18.562Z,-2.33
2018-02-07T01:29:28.495Z,-2.36
2018-02-07T01:30:38.444Z,-2.4
2018-02-07T01:31:48.387Z,-2.42
2018-02-07T01:32:58.333Z,-2.39
2018-02-07T01:34:08.276Z,-2.39
2018-02-07T01:35:18.210Z,-2.34
2018-02-07T01:36:27.634Z,-2.5
2018-02-07T01:37:37.582Z,-2.47
2018-02-07T01:38:47.543Z,-2.5
2018-02-07T01:39:57.494Z,-2.52
2018-02-07T01:41:07.446Z,-2.51
2018-02-07T01:42:17.399Z,-2.54
2018-02-07T01:43:27.348Z,-2.55
2018-02-07T01:44:37.300Z,-2.61
2018-02-07T01:45:46.732Z,-2.54
2018-02-07T01:46:56.683Z,-2.61
2018-02-07T01:48:06.624Z,-2.57
2018-02-07T01:49:16.563Z,-2.57
2018-02-07T01:50:26.511Z,-2.62
2018-02-07T01:51:36.197Z,-2.54
2018-02-07T01:52:46.149Z,-2.57
2018-02-07T01:53:55.826Z,-2.61
2018-02-07T01:55:05.763Z,-2.58
2018-02-07T01:56:15.699Z,-2.62
2018-02-07T01:57:25.647Z,-2.55
2018-02-07T01:58:35.325Z,-2.58
2018-02-07T01:59:45.281Z,-2.55
2018-02-07T02:00:54.980Z,-2.63
2018-02-07T02:02:04.934Z,-2.63
2018-02-07T02:03:14.866Z,-2.55
2018-02-07T02:04:24.302Z,-2.54
2018-02-07T02:05:34.236Z,-2.58
2018-02-07T02:06:43.932Z,-2.63
2018-02-07T02:07:53.621Z,-2.55
2018-02-07T02:09:03.504Z,-2.55
2018-02-07T02:10:13.436Z,-2.5
2018-02-07T02:11:23.371Z,-2.51
2018-02-07T02:12:33.333Z,-2.61
2018-02-07T02:13:43.033Z,-2.51
2018-02-07T02:14:52.980Z,-2.54
2018-02-07T02:16:02.668Z,-2.54
2018-02-07T02:17:12.354Z,-2.48
2018-02-07T02:18:22.292Z,-2.45
2018-02-07T02:19:31.977Z,-2.51
2018-02-07T02:20:41.927Z,-2.52
2018-02-07T02:21:51.876Z,-2.52
2018-02-07T02:23:01.823Z,-2.4
2018-02-07T02:24:11.764Z,-2.34
2018-02-07T02:25:21.709Z,-2.37
2018-02-07T02:26:31.663Z,-2.42
2018-02-07T02:27:41.604Z,-2.4
2018-02-07T02:28:51.286Z,-2.36
2018-02-07T02:30:00.974Z,-2.37
2018-02-07T02:31:10.915Z,-2.32
2018-02-07T02:32:20.601Z,-2.29
2018-02-07T02:33:30.281Z,-2.32
2018-02-07T02:34:40.288Z,-2.29
2018-02-07T02:35:50.237Z,-2.25
2018-02-07T02:37:00.181Z,-2.23
2018-02-07T02:38:09.619Z,-2.15
2018-02-07T02:39:19.566Z,-2.18
2018-02-07T02:40:29.510Z,-2.13
2018-02-07T02:41:39.190Z,-2.14
2018-02-07T02:42:48.893Z,-2.08
2018-02-07T02:43:58.894Z,-2.17
2018-02-07T02:45:08.579Z,-2.17
2018-02-07T02:46:18.531Z,-2.13
2018-02-07T02:47:28.472Z,-1.99
2018-02-07T02:48:38.764Z,-1.99
2018-02-07T02:49:48.445Z,-2.07
2018-02-07T02:50:58.135Z,-2.1
2018-02-07T02:52:08.079Z,-2.13
2018-02-07T02:53:17.765Z,-2.1
2018-02-07T02:54:27.706Z,-2.14
2018-02-07T02:55:37.400Z,-2.13
2018-02-07T02:56:47.090Z,-2.05
2018-02-07T02:57:56.777Z,-2.13
2018-02-07T02:59:06.461Z,-2.11
2018-02-07T03:00:16.409Z,-2.1
2018-02-07T03:01:26.350Z,-2.14
2018-02-07T03:02:36.335Z,-2.11
2018-02-07T03:03:46.285Z,-2.13
2018-02-07T03:04:56.296Z,-2.14
2018-02-07T03:06:06.231Z,-2.1
2018-02-07T03:07:16.168Z,-2.14
2018-02-07T03:08:26.158Z,-2.15
2018-02-07T03:09:36.103Z,-2.14
2018-02-07T03:10:45.788Z,-2.17
2018-02-07T03:11:55.723Z,-2.22
2018-02-07T03:13:05.679Z,-2.13
2018-02-07T03:14:15.609Z,-2.26
2018-02-07T03:15:25.293Z,-2.25
2018-02-07T03:16:35.235Z,-2.2
2018-02-07T03:17:45.190Z,-2.17
2018-02-07T03:18:55.130Z,-2.15
2018-02-07T03:20:04.587Z,-2.17
2018-02-07T03:21:14.276Z,-2.1
2018-02-07T03:22:23.711Z,-2.2
2018-02-07T03:23:33.389Z,-2.11
2018-02-07T03:24:42.826Z,-2.14
2018-02-07T03:25:52.770Z,-2.13
2018-02-07T03:27:02.716Z,-2.18
2018-02-07T03:28:12.662Z,-2.15
2018-02-07T03:29:22.603Z,-2.13
2018-02-07T03:30:32.565Z,-2.2
2018-02-07T03:31:42.559Z,-2.14
2018-02-07T03:32:52.494Z,-2.14
2018-02-07T03:34:02.444Z,-2.17
2018-02-07T03:35:12.389Z,-2.15
2018-02-07T03:36:22.328Z,-2.1
2018-02-07T03:37:32.266Z,-2.15
2018-02-07T03:38:41.942Z,-2.17
2018-02-07T03:39:51.667Z,-2.11
2018-02-07T03:41:01.411Z,-2.08
2018-02-07T03:42:11.088Z,-2.07
2018-02-07T03:43:21.089Z,-1.99
2018-02-07T03:44:31.033Z,-2.11
2018-02-07T03:45:40.981Z,-2.08
2018-02-07T03:46:50.927Z,-1.99
2018-02-07T03:48:00.613Z,-2.07
2018-02-07T03:49:10.550Z,-1.94
2018-02-07T03:50:20.489Z,-2.02
2018-02-07T03:51:30.434Z,-2
2018-02-07T03:52:40.109Z,-2.02
2018-02-07T03:53:50.055Z,-2.07
2018-02-07T03:54:59.748Z,-2.07
2018-02-07T03:56:09.438Z,-2.02
2018-02-07T03:57:19.122Z,-2.07
2018-02-07T03:58:28.812Z,-2.11
2018-02-07T03:59:38.507Z,-1.97
2018-02-07T04:00:48.209Z,-1.96
2018-02-07T04:01:58.154Z,-1.97
2018-02-07T04:03:08.097Z,-2.07
2018-02-07T04:04:17.776Z,-2.04
2018-02-07T04:05:27.727Z,-1.96
2018-02-07T04:06:37.678Z,-1.99
2018-02-07T04:07:47.614Z,-1.99
2018-02-07T04:08:57.552Z,-2.1
2018-02-07T04:10:07.493Z,-2.02
2018-02-07T04:11:17.428Z,-2.04
2018-02-07T04:12:27.367Z,-2.04
2018-02-07T04:13:37.304Z,-1.96
2018-02-07T04:14:47.238Z,-1.99
2018-02-07T04:15:57.186Z,-1.99
2018-02-07T04:17:06.973Z,-1.94
2018-02-07T04:18:16.667Z,-2
2018-02-07T04:19:26.601Z,-2
2018-02-07T04:20:36.028Z,-1.96
2018-02-07T04:21:46.063Z,-1.96
2018-02-07T04:22:55.994Z,-1.97
2018-02-07T04:24:05.677Z,-2
2018-02-07T04:25:15.629Z,-2.04
2018-02-07T04:26:25.570Z,-2.04
2018-02-07T04:27:35.518Z,-2.1
2018-02-07T04:28:45.208Z,-2.08
2018-02-07T04:29:54.892Z,-1.99
2018-02-07T04:31:04.841Z,-2.02
2018-02-07T04:32:14.785Z,-1.96
2018-02-07T04:33:24.728Z,-2.15
2018-02-07T04:34:34.402Z,-2.02
2018-02-07T04:35:43.891Z,-2.02
2018-02-07T04:36:53.830Z,-2.02
2018-02-07T04:38:03.787Z,-1.99
2018-02-07T04:39:13.745Z,-2.02
2018-02-07T04:40:23.429Z,-2.04
2018-02-07T04:41:33.133Z,-2.08
2018-02-07T04:42:43.077Z,-2
2018-02-07T04:43:53.019Z,-2.08
2018-02-07T04:45:02.993Z,-1.99
2018-02-07T04:46:12.686Z,-2.04
2018-02-07T04:47:22.639Z,-2.05
2018-02-07T04:48:32.318Z,-2
2018-02-07T04:49:42.405Z,-1.97
2018-02-07T04:50:52.358Z,-1.99
2018-02-07T04:52:02.296Z,-1.99
2018-02-07T04:53:11.726Z,-1.92
2018-02-07T04:54:21.690Z,-1.97
2018-02-07T04:55:31.664Z,-1.99
2018-02-07T04:56:41.606Z,-1.96
2018-02-07T04:57:51.283Z,-1.9
2018-02-07T04:59:01.229Z,-1.93
2018-02-07T05:00:10.916Z,-1.82
2018-02-07T05:01:20.857Z,-1.89
2018-02-07T05:02:30.546Z,-1.93
2018-02-07T05:03:39.970Z,-1.84
2018-02-07T05:04:49.399Z,-1.87
2018-02-07T05:05:59.337Z,-1.89
2018-02-07T05:07:09.286Z,-1.89
2018-02-07T05:08:19.238Z,-1.9
2018-02-07T05:09:29.191Z,-1.82
2018-02-07T05:10:39.123Z,-1.9
2018-02-07T05:11:49.079Z,-1.9
2018-02-07T05:12:59.025Z,-1.86
2018-02-07T05:14:08.709Z,-1.86
2018-02-07T05:15:18.644Z,-1.81
2018-02-07T05:16:28.578Z,-1.78
2018-02-07T05:17:38.540Z,-1.87
2018-02-07T05:18:48.494Z,-1.89
2018-02-07T05:19:58.430Z,-1.79
2018-02-07T05:21:08.383Z,-1.76
2018-02-07T05:22:18.319Z,-1.84
2018-02-07T05:23:28.249Z,-1.84
2018-02-07T05:24:38.186Z,-1.69
2018-02-07T05:25:48.147Z,-1.74
2018-02-07T05:26:57.838Z,-1.79
2018-02-07T05:28:07.534Z,-1.78
2018-02-07T05:29:17.485Z,-1.75
2018-02-07T05:30:27.435Z,-1.72
2018-02-07T05:31:37.378Z,-1.87
2018-02-07T05:32:47.323Z,-1.79
2018-02-07T05:33:57.004Z,-1.72
2018-02-07T05:35:06.956Z,-1.76
2018-02-07T05:36:16.909Z,-1.78
2018-02-07T05:37:26.852Z,-1.87
2018-02-07T05:38:36.795Z,-1.84
2018-02-07T05:39:46.744Z,-1.82
2018-02-07T05:40:56.691Z,-1.87
2018-02-07T05:42:06.633Z,-1.82
2018-02-07T05:43:16.320Z,-1.89
2018-02-07T05:44:26.010Z,-1.92
2018-02-07T05:45:35.704Z,-1.84
2018-02-07T05:46:45.391Z,-1.84
2018-02-07T05:47:55.340Z,-1.9
2018-02-07T05:49:05.292Z,-1.96
2018-02-07T05:50:15.236Z,-1.92
2018-02-07T05:51:24.917Z,-1.96
2018-02-07T05:52:34.615Z,-1.96
2018-02-07T05:53:44.291Z,-1.93
2018-02-07T05:54:53.977Z,-1.92
2018-02-07T05:56:03.679Z,-1.94
2018-02-07T05:57:13.620Z,-1.92
2018-02-07T05:58:23.566Z,-1.86
2018-02-07T05:59:33.526Z,-1.92
2018-02-07T06:00:43.477Z,-1.92
2018-02-07T06:01:53.416Z,-1.94
2018-02-07T06:03:03.351Z,-1.87
2018-02-07T06:04:13.033Z,-1.89
2018-02-07T06:05:22.982Z,-1.86
2018-02-07T06:06:32.659Z,-1.9
2018-02-07T06:07:42.357Z,-1.9
2018-02-07T06:08:52.298Z,-1.9
2018-02-07T06:10:02.298Z,-1.89
2018-02-07T06:11:12.237Z,-1.92
2018-02-07T06:12:21.915Z,-1.89
2018-02-07T06:13:31.857Z,-1.84
2018-02-07T06:14:41.796Z,-1.89
2018-02-07T06:15:51.477Z,-1.9
2018-02-07T06:17:01.426Z,-1.93
2018-02-07T06:18:11.368Z,-1.94
2018-02-07T06:19:21.316Z,-1.93
2018-02-07T06:20:31.258Z,-1.82
2018-02-07T06:21:40.715Z,-1.86
2018-02-07T06:22:50.656Z,-1.94
2018-02-07T06:24:00.341Z,-1.94
2018-02-07T06:25:10.286Z,-2.04
2018-02-07T06:26:20.223Z,-2
2018-02-07T06:27:30.169Z,-2.05
2018-02-07T06:28:39.849Z,-1.99
2018-02-07T06:29:49.791Z,-1.97
2018-02-07T06:30:59.800Z,-1.97
2018-02-07T06:32:09.740Z,-2
2018-02-07T06:33:19.426Z,-1.97
2018-02-07T06:34:29.105Z,-1.86
2018-02-07T06:35:38.790Z,-1.96
2018-02-07T06:36:48.737Z,-1.96
2018-02-07T06:37:58.668Z,-1.94
2018-02-07T06:39:08.624Z,-1.96
2018-02-07T06:40:18.560Z,-1.84
2018-02-07T06:41:28.509Z,-1.94
2018-02-07T06:42:38.697Z,-1.96
2018-02-07T06:43:48.383Z,-1.94
2018-02-07T06:44:58.321Z,-1.9
2018-02-07T06:46:08.271Z,-1.89
2018-02-07T06:47:18.237Z,-1.97
2018-02-07T06:48:27.937Z,-1.96
2018-02-07T06:49:37.881Z,-2
2018-02-07T06:50:47.826Z,-1.99
2018-02-07T06:51:57.789Z,-2
2018-02-07T06:53:07.741Z,-1.87
2018-02-07T06:54:17.673Z,-1.94
2018-02-07T06:55:27.608Z,-1.94
2018-02-07T06:56:37.026Z,-1.9
2018-02-07T06:57:46.976Z,-1.87
2018-02-07T06:58:56.678Z,-1.94
2018-02-07T07:00:06.614Z,-1.79
2018-02-07T07:01:16.548Z,-1.87
2018-02-07T07:02:26.232Z,-1.92
2018-02-07T07:03:36.248Z,-1.9
2018-02-07T07:04:45.931Z,-1.81
2018-02-07T07:05:55.887Z,-1.86
2018-02-07T07:07:05.827Z,-1.87
2018-02-07T07:08:15.512Z,-1.86
2018-02-07T07:09:25.209Z,-1.79
2018-02-07T07:10:35.154Z,-1.89
2018-02-07T07:11:45.156Z,-1.75
2018-02-07T07:12:55.130Z,-1.84
2018-02-07T07:14:04.851Z,-1.78
2018-02-07T07:15:14.799Z,-1.84
2018-02-07T07:16:24.772Z,-1.87
2018-02-07T07:17:34.818Z,-1.87
2018-02-07T07:18:44.771Z,-1.84
2018-02-07T07:19:54.713Z,-1.86
2018-02-07T07:21:04.670Z,-1.86
2018-02-07T07:22:14.619Z,-1.87
2018-02-07T07:23:24.319Z,-1.84
2018-02-07T07:24:34.260Z,-1.86
2018-02-07T07:25:43.967Z,-1.92
2018-02-07T07:26:53.650Z,-1.89
2018-02-07T07:28:03.347Z,-1.81
2018-02-07T07:29:13.298Z,-1.89
2018-02-07T07:30:23.264Z,-1.84
2018-02-07T07:31:33.214Z,-1.84
2018-02-07T07:32:42.907Z,-1.89
2018-02-07T07:33:52.846Z,-1.86
2018-02-07T07:35:02.531Z,-1.89
2018-02-07T07:36:12.485Z,-1.82
2018-02-07T07:37:22.428Z,-1.76
2018-02-07T07:38:32.397Z,-1.76
2018-02-07T07:39:42.351Z,-1.72
2018-02-07T07:40:52.291Z,-1.72
2018-02-07T07:42:01.722Z,-1.69
2018-02-07T07:43:11.681Z,-1.66
2018-02-07T07:44:21.618Z,-1.74
2018-02-07T07:45:31.608Z,-1.74
2018-02-07T07:46:41.545Z,-1.66
2018-02-07T07:47:51.249Z,-1.66
2018-02-07T07:49:01.227Z,-1.56
2018-02-07T07:50:11.162Z,-1.51
2018-02-07T07:51:20.850Z,-1.54
2018-02-07T07:52:30.791Z,-1.54
2018-02-07T07:53:40.477Z,-1.56
2018-02-07T07:54:50.458Z,-1.53
2018-02-07T07:56:00.426Z,-1.58
2018-02-07T07:57:10.372Z,-1.48
2018-02-07T07:58:20.119Z,-1.48
2018-02-07T07:59:29.814Z,-1.45
2018-02-07T08:00:39.770Z,-1.39
2018-02-07T08:01:49.471Z,-1.46
2018-02-07T08:02:59.181Z,-1.3
2018-02-07T08:04:09.201Z,-1.36
2018-02-07T08:05:19.219Z,-1.38
2018-02-07T08:06:28.913Z,-1.35
2018-02-07T08:07:38.880Z,-1.32
2018-02-07T08:08:48.851Z,-1.33
2018-02-07T08:09:58.802Z,-1.27
2018-02-07T08:11:08.752Z,-1.3
2018-02-07T08:12:18.455Z,-1.29
2018-02-07T08:13:28.403Z,-1.12
2018-02-07T08:14:38.101Z,-1.24
2018-02-07T08:15:48.071Z,-1.12
2018-02-07T08:16:58.009Z,-1.06
2018-02-07T08:18:07.953Z,-1.09
2018-02-07T08:19:17.649Z,-1.06
2018-02-07T08:20:27.599Z,-1.01
2018-02-07T08:21:37.543Z,-1.01
2018-02-07T08:22:47.481Z,-0.91
2018-02-07T08:23:57.189Z,-1.01
2018-02-07T08:25:07.138Z,-0.89
2018-02-07T08:26:17.079Z,-0.91
2018-02-07T08:27:26.766Z,-0.78
2018-02-07T08:28:36.712Z,-0.78
2018-02-07T08:29:46.650Z,-0.75
2018-02-07T08:30:56.091Z,-0.77
2018-02-07T08:32:05.829Z,-0.8
2018-02-07T08:33:15.532Z,-0.77
2018-02-07T08:34:25.490Z,-0.63
2018-02-07T08:35:35.431Z,-0.78
2018-02-07T08:36:45.115Z,-0.75
2018-02-07T08:37:54.804Z,-0.67
2018-02-07T08:39:04.760Z,-0.72
2018-02-07T08:40:14.454Z,-0.6
2018-02-07T08:41:24.400Z,-0.56
2018-02-07T08:42:34.346Z,-0.67
2018-02-07T08:43:44.289Z,-0.59
2018-02-07T08:44:54.221Z,-0.59
2018-02-07T08:46:03.916Z,-0.6
2018-02-07T08:47:13.618Z,-0.62
2018-02-07T08:48:23.313Z,-0.57
2018-02-07T08:49:33.057Z,-0.66
2018-02-07T08:50:42.492Z,-0.66
2018-02-07T08:51:52.243Z,-0.48
2018-02-07T08:53:02.178Z,-0.53
2018-02-07T08:54:12.128Z,-0.51
2018-02-07T08:55:21.827Z,-0.48
2018-02-07T08:56:31.783Z,-0.51
2018-02-07T08:57:41.473Z,-0.46
2018-02-07T08:58:51.415Z,-0.41
2018-02-07T09:00:01.368Z,-0.38
2018-02-07T09:01:11.324Z,-0.42
2018-02-07T09:02:21.045Z,-0.35
2018-02-07T09:03:31.063Z,-0.36
2018-02-07T09:04:40.777Z,-0.28
2018-02-07T09:05:50.719Z,-0.17
2018-02-07T09:07:00.678Z,-0.13
2018-02-07T09:08:10.626Z,-0.24
2018-02-07T09:09:20.590Z,-0.24
2018-02-07T09:10:30.550Z,-0.13
2018-02-07T09:11:40.495Z,-0.13
2018-02-07T09:12:50.431Z,-0.13
2018-02-07T09:14:00.386Z,-0.03
2018-02-07T09:15:10.327Z,0.06
2018-02-07T09:16:20.019Z,-0.03
2018-02-07T09:17:29.976Z,0.08
2018-02-07T09:18:39.923Z,0.12
2018-02-07T09:19:49.890Z,0.29
2018-02-07T09:20:59.584Z,0.2
2018-02-07T09:22:09.274Z,0.3
2018-02-07T09:23:19.235Z,0.34
2018-02-07T09:24:28.933Z,0.36
2018-02-07T09:25:38.881Z,0.42
2018-02-07T09:26:48.852Z,0.44
2018-02-07T09:27:58.826Z,0.49
2018-02-07T09:29:08.778Z,0.64
2018-02-07T09:30:18.725Z,0.52
2018-02-07T09:31:28.667Z,0.49
2018-02-07T09:32:38.621Z,0.51
2018-02-07T09:33:48.152Z,0.64
2018-02-07T09:34:58.134Z,0.84
2018-02-07T09:36:07.848Z,0.84
2018-02-07T09:37:17.811Z,0.99
2018-02-07T09:38:27.796Z,1.13
2018-02-07T09:39:37.490Z,1.21
2018-02-07T09:40:47.426Z,1.34
2018-02-07T09:41:57.393Z,1.46
2018-02-07T09:43:07.356Z,1.49
2018-02-07T09:44:17.057Z,1.63
2018-02-07T09:45:27.013Z,1.79
2018-02-07T09:46:36.971Z,1.92
2018-02-07T09:47:46.929Z,2.15
2018-02-07T09:48:56.637Z,2.34
2018-02-07T09:50:06.582Z,2.58
2018-02-07T09:51:16.596Z,2.85
2018-02-07T09:52:26.742Z,3.05
2018-02-07T09:53:36.708Z,3.05
2018-02-07T09:54:46.720Z,3.19
2018-02-07T09:55:56.690Z,3.49
2018-02-07T09:57:06.457Z,3.63
2018-02-07T09:58:16.435Z,3.48
2018-02-07T09:59:26.400Z,3.52
2018-02-07T10:00:36.096Z,3.84
2018-02-07T10:01:45.805Z,3.89
2018-02-07T10:02:55.783Z,4.22
2018-02-07T10:04:05.757Z,4.38
2018-02-07T10:05:15.724Z,4.58
2018-02-07T10:06:25.700Z,5
2018-02-07T10:07:35.654Z,5.2
2018-02-07T10:08:45.412Z,5.47
2018-02-07T10:09:55.390Z,5.25
2018-02-07T10:11:05.335Z,5.22
2018-02-07T10:12:15.025Z,5.22
2018-02-07T10:13:24.989Z,4.97
2018-02-07T10:14:34.941Z,5
2018-02-07T10:15:44.909Z,5.25
2018-02-07T10:16:54.877Z,5.12
2018-02-07T10:18:04.577Z,5.01
2018-02-07T10:19:14.593Z,4.92
2018-02-07T10:20:24.317Z,4.87
2018-02-07T10:21:33.760Z,5.12
2018-02-07T10:22:43.786Z,5.31
2018-02-07T10:23:53.488Z,5.59
2018-02-07T10:25:03.196Z,6.05
2018-02-07T10:26:13.008Z,6.34
2018-02-07T10:27:22.441Z,6.17
2018-02-07T10:28:32.400Z,6.1
2018-02-07T10:29:41.593Z,6.12
2018-02-07T10:30:51.612Z,6.22
2018-02-07T10:32:01.563Z,6.36
2018-02-07T10:33:11.266Z,6.46
2018-02-07T10:34:21.211Z,6.7
2018-02-07T10:35:30.917Z,6.59
2018-02-07T10:36:40.643Z,6.53
2018-02-07T10:37:50.345Z,6.85
2018-02-07T10:39:00.312Z,6.82
2018-02-07T10:40:10.272Z,7
2018-02-07T10:41:20.036Z,7.33
2018-02-07T10:42:30.016Z,7.28
2018-02-07T10:43:39.986Z,7.21
2018-02-07T10:44:49.689Z,7.28
2018-02-07T10:45:59.648Z,7.31
2018-02-07T10:47:09.365Z,7.59
2018-02-07T10:48:19.360Z,7.83
2018-02-07T10:49:29.058Z,7.85
2018-02-07T10:50:39.058Z,8.16
2018-02-07T10:51:49.016Z,8.36
2018-02-07T10:52:58.988Z,8.38
2018-02-07T10:54:08.950Z,8.16
2018-02-07T10:55:18.911Z,7.62
2018-02-07T10:56:28.624Z,7.77
2018-02-07T10:57:38.610Z,8.08
2018-02-07T10:58:48.316Z,8.24
2018-02-07T10:59:58.263Z,7.67
2018-02-07T11:01:08.241Z,7.01
2018-02-07T11:02:17.689Z,6.26
2018-02-07T11:03:27.653Z,5.74
2018-02-07T11:04:37.404Z,5.62
2018-02-07T11:05:47.353Z,5.64
2018-02-07T11:06:57.317Z,5.65
2018-02-07T11:08:07.311Z,5.7
2018-02-07T11:09:17.032Z,5.81
2018-02-07T11:10:26.722Z,5.52
2018-02-07T11:11:36.435Z,5.26
2018-02-07T11:12:46.384Z,5.08
2018-02-07T11:13:56.351Z,5.02
2018-02-07T11:15:06.319Z,5.05
2018-02-07T11:16:16.275Z,5.22
2018-02-07T11:17:26.237Z,5.26
2018-02-07T11:18:36.218Z,5.02
2018-02-07T11:19:46.322Z,4.9
2018-02-07T11:20:56.274Z,4.53
2018-02-07T11:22:05.969Z,4.53
2018-02-07T11:23:15.930Z,4.53
2018-02-07T11:24:25.104Z,4.49
2018-02-07T11:25:34.294Z,4.43
2018-02-07T11:26:44.265Z,4.5
2018-02-07T11:27:54.273Z,4.53
2018-02-07T11:29:04.039Z,4.58
2018-02-07T11:30:13.748Z,4.67
2018-02-07T11:31:23.464Z,4.6
2018-02-07T11:32:33.178Z,4.57
2018-02-07T11:33:43.134Z,4.7
2018-02-07T11:34:53.091Z,4.71
2018-02-07T11:36:02.573Z,4.71
2018-02-07T11:37:12.292Z,4.67
2018-02-07T11:38:22.008Z,5
2018-02-07T11:39:31.979Z,5.02
2018-02-07T11:40:41.936Z,4.86
2018-02-07T11:41:51.920Z,5.13
2018-02-07T11:43:01.889Z,5.26
2018-02-07T11:44:11.605Z,5.36
2018-02-07T11:45:21.304Z,5.67
2018-02-07T11:46:31.274Z,5.76
2018-02-07T11:47:40.727Z,5.81
2018-02-07T11:48:50.687Z,5.88
2018-02-07T11:50:00.642Z,5.79
2018-02-07T11:51:10.344Z,5.84
2018-02-07T11:52:20.308Z,6.13
2018-02-07T11:53:30.004Z,5.91
2018-02-07T11:54:39.958Z,6.06
2018-02-07T11:55:49.924Z,6.35
2018-02-07T11:56:59.904Z,6.54
2018-02-07T11:58:09.623Z,6.6
2018-02-07T11:59:19.086Z,6.68
2018-02-07T12:00:29.067Z,6.85
2018-02-07T12:01:38.771Z,6.85
2018-02-07T12:02:48.478Z,6.83
2018-02-07T12:03:58.202Z,7.04
2018-02-07T12:05:07.913Z,7.1
2018-02-07T12:06:17.619Z,7.08
2018-02-07T12:07:27.580Z,7.03
2018-02-07T12:08:37.554Z,7.03
2018-02-07T12:09:47.260Z,7.05
2018-02-07T12:10:57.511Z,6.71
2018-02-07T12:12:07.478Z,6.56
2018-02-07T12:13:17.438Z,6.72
2018-02-07T12:14:27.396Z,6.74
2018-02-07T12:15:37.374Z,6.62
2018-02-07T12:16:47.094Z,6.64
2018-02-07T12:17:56.793Z,6.83
2018-02-07T12:19:06.748Z,7.19
2018-02-07T12:20:16.766Z,7.48
2018-02-07T12:21:26.225Z,7.48
2018-02-07T12:22:35.935Z,7.48
2018-02-07T12:23:45.390Z,7.39
2018-02-07T12:24:55.418Z,7.37
2018-02-07T12:26:05.388Z,7.21
2018-02-07T12:27:15.100Z,7.15
2018-02-07T12:28:24.809Z,7.19
2018-02-07T12:29:34.765Z,7.23
2018-02-07T12:30:44.735Z,7.18
2018-02-07T12:31:54.722Z,6.96
2018-02-07T12:33:04.682Z,6.78
2018-02-07T12:34:14.638Z,6.68
2018-02-07T12:35:24.592Z,7.01
2018-02-07T12:36:34.039Z,7.31
2018-02-07T12:37:43.741Z,7.61
2018-02-07T12:38:53.463Z,7.96
2018-02-07T12:40:03.159Z,8.35
2018-02-07T12:41:13.128Z,8.79
2018-02-07T12:42:22.842Z,8.77
2018-02-07T12:43:32.819Z,8.53
2018-02-07T12:44:42.517Z,8.11
2018-02-07T12:45:52.474Z,7.85
2018-02-07T12:47:02.452Z,8.02
2018-02-07T12:48:12.407Z,7.99
2018-02-07T12:49:22.101Z,7.78
2018-02-07T12:50:32.117Z,7.8
2018-02-07T12:51:42.084Z,7.77
2018-02-07T12:52:51.783Z,7.75
2018-02-07T12:54:01.760Z,7.85
2018-02-07T12:55:11.708Z,8.11
2018-02-07T12:56:21.675Z,8.11
2018-02-07T12:57:31.636Z,8.11
2018-02-07T12:58:41.610Z,8.32
2018-02-07T12:59:51.337Z,8.36
2018-02-07T13:01:01.308Z,8.34
2018-02-07T13:02:11.000Z,8.38
2018-02-07T13:03:20.952Z,8.61
2018-02-07T13:04:30.657Z,8.63
2018-02-07T13:05:40.648Z,8.5
2018-02-07T13:06:50.405Z,8.64
2018-02-07T13:08:00.164Z,8.87
2018-02-07T13:09:10.138Z,8.97
2018-02-07T13:10:19.834Z,8.92
2018-02-07T13:11:29.526Z,8.87
2018-02-07T13:12:39.476Z,8.9
2018-02-07T13:13:49.428Z,9.12
2018-02-07T13:14:58.873Z,9.05
2018-02-07T13:16:08.838Z,9.39
2018-02-07T13:17:18.547Z,9.42
2018-02-07T13:18:28.509Z,9.47
2018-02-07T13:19:38.476Z,9.7
2018-02-07T13:20:48.590Z,10.05
2018-02-07T13:21:58.569Z,10.23
2018-02-07T13:23:08.526Z,10.45
2018-02-07T13:24:18.487Z,10.34
2018-02-07T13:25:28.462Z,10.57
2018-02-07T13:26:38.433Z,10.49
2018-02-07T13:27:48.405Z,10.53
2018-02-07T13:28:58.372Z,10.75
2018-02-07T13:30:08.336Z,11.13
2018-02-07T13:31:18.074Z,11.08
2018-02-07T13:32:28.031Z,10.65
2018-02-07T13:33:37.988Z,10.58
2018-02-07T13:34:47.966Z,10.57
2018-02-07T13:35:57.689Z,10.42
2018-02-07T13:37:07.675Z,10.51
2018-02-07T13:38:17.395Z,10.59
2018-02-07T13:39:27.354Z,10.68
2018-02-07T13:40:36.800Z,10.65
2018-02-07T13:41:46.249Z,10.36
2018-02-07T13:42:56.215Z,10.55
2018-02-07T13:44:06.177Z,10.65
2018-02-07T13:45:16.133Z,10.71
2018-02-07T13:46:26.083Z,10.76
2018-02-07T13:47:36.071Z,10.65
2018-02-07T13:48:45.774Z,10.64
2018-02-07T13:49:55.236Z,10.42
2018-02-07T13:51:05.207Z,10.53
2018-02-07T13:52:15.169Z,10.55
2018-02-07T13:53:25.130Z,10.55
2018-02-07T13:54:34.582Z,10.34
2018-02-07T13:55:44.590Z,10.41
2018-02-07T13:56:54.786Z,10.53
2018-02-07T13:58:04.509Z,10.55
2018-02-07T13:59:14.469Z,10.18
2018-02-07T14:00:24.439Z,9.97
2018-02-07T14:01:34.408Z,9.77
2018-02-07T14:02:43.848Z,9.59
2018-02-07T14:03:53.580Z,9.3
2018-02-07T14:05:03.284Z,9.29
2018-02-07T14:06:13.242Z,9.22
2018-02-07T14:07:23.206Z,9.03
2018-02-07T14:08:33.184Z,8.86
2018-02-07T14:09:42.879Z,8.69
2018-02-07T14:10:52.336Z,8.38
2018-02-07T14:12:01.795Z,8.46
2018-02-07T14:13:11.749Z,8.53
2018-02-07T14:14:21.460Z,8.64
2018-02-07T14:15:30.931Z,8.6
2018-02-07T14:16:40.888Z,8.69
2018-02-07T14:17:50.594Z,8.68
2018-02-07T14:19:00.558Z,8.81
2018-02-07T14:20:10.512Z,8.89
2018-02-07T14:21:20.477Z,8.96
2018-02-07T14:22:30.586Z,8.64
2018-02-07T14:23:40.322Z,8.64
2018-02-07T14:24:50.277Z,8.75
2018-02-07T14:26:00.265Z,8.6
2018-02-07T14:27:09.961Z,8.41
2018-02-07T14:28:19.973Z,7.9
2018-02-07T14:29:29.949Z,7.72
2018-02-07T14:30:39.654Z,7.62
2018-02-07T14:31:49.385Z,7.78
2018-02-07T14:32:59.362Z,7.81
2018-02-07T14:34:09.329Z,7.67
2018-02-07T14:35:19.291Z,7.47
2018-02-07T14:36:28.984Z,7.5
2018-02-07T14:37:38.953Z,7.48
2018-02-07T14:38:48.659Z,7.29
2018-02-07T14:39:58.361Z,7.4
2018-02-07T14:41:08.061Z,7.21
2018-02-07T14:42:18.021Z,7.15
2018-02-07T14:43:27.980Z,7.21
2018-02-07T14:44:38.010Z,6.97
2018-02-07T14:45:47.978Z,6.96
2018-02-07T14:46:57.696Z,7.05
2018-02-07T14:48:07.681Z,7.14
2018-02-07T14:49:17.631Z,7.33
2018-02-07T14:50:27.392Z,7.18
2018-02-07T14:51:37.362Z,7.15
2018-02-07T14:52:47.063Z,6.96
2018-02-07T14:53:56.792Z,6.67
2018-02-07T14:55:06.505Z,6.64
2018-02-07T14:56:16.204Z,6.59
2018-02-07T14:57:26.164Z,6.75
2018-02-07T14:58:35.878Z,6.85
2018-02-07T14:59:45.382Z,6.59
2018-02-07T15:00:55.327Z,6.52
2018-02-07T15:02:05.310Z,6.38
2018-02-07T15:03:15.016Z,6.29
2018-02-07T15:04:24.988Z,6.12
2018-02-07T15:05:34.698Z,5.92
2018-02-07T15:06:44.655Z,5.9
2018-02-07T15:07:54.366Z,5.91
2018-02-07T15:09:04.330Z,5.9
2018-02-07T15:10:14.036Z,5.84
2018-02-07T15:11:24.017Z,5.69
2018-02-07T15:12:33.718Z,5.62
2018-02-07T15:13:43.679Z,5.41
2018-02-07T15:14:53.118Z,5.19